Time;durP1;ratioP1;P1;durP2;ratioP2;P2;SDS_P1;SDS_P2;PMS_P1;PMS_P2;Temp;Humidity;BMP_temperature;BMP_pressure;BME280_temperature;BME280_humidity;BME280_pressure;Samples;Min_cycle;Max_cycle;Signal;HPM_P1;HPM_P2
2022/05/01 00:00:34;;;;;;;;;;;;;;;19.95;64.25;98692.38;2081001;28;19932;-52
2022/05/01 00:01:35;;;;;;;;;;;;;;;19.96;64.12;98688.63;2085908;28;19967;-47
2022/05/01 00:02:36;;;;;;;;;;;;;;;19.94;64.57;98689.88;2088033;28;19932;-47
2022/05/01 00:03:39;;;;;;;;;;;;;;;19.94;64.53;98689.88;2088143;28;19939;-50
2022/05/01 00:04:42;;;;;;;;;;;;;;;19.95;64.25;98694.25;2086481;28;20012;-48
2022/05/01 00:05:43;;;;;;;;;;;;;;;19.94;64.22;98689.88;2088873;28;20019;-47
2022/05/01 00:06:44;;;;;;;;;;;;;;;19.95;64.13;98694.25;2088398;28;19935;-49
2022/05/01 00:07:45;;;;;;;;;;;;;;;19.94;64.44;98689.88;2088594;28;19929;-48
2022/05/01 00:08:47;;;;;;;;;;;;;;;19.93;64.54;98688.22;2088380;28;20403;-49
2022/05/01 00:09:48;;;;;;;;;;;;;;;19.94;64.56;98690.69;2088485;28;19940;-48
2022/05/01 00:10:49;;;;;;;;;;;;;;;19.95;64.17;98686.16;2078827;28;19925;-49
2022/05/01 00:11:50;;;;;;;;;;;;;;;19.95;64.47;98684.28;2087086;28;19929;-48
2022/05/01 00:12:51;;;;;;;;;;;;;;;19.95;64.60;98687.00;2090793;28;20279;-47
2022/05/01 00:13:52;;;;;;;;;;;;;;;19.94;64.44;98689.88;2087728;28;19978;-49
2022/05/01 00:14:54;;;;;;;;;;;;;;;19.95;64.74;98686.16;2090298;28;19936;-49
2022/05/01 00:15:54;;;;;;;;;;;;;;;19.95;64.52;98687.00;2086725;28;19940;-49
2022/05/01 00:16:56;;;;;;;;;;;;;;;19.94;64.28;98685.31;2089462;28;19924;-48
2022/05/01 00:17:57;;;;;;;;;;;;;;;19.94;64.72;98688.00;2087264;28;20103;-47
2022/05/01 00:18:59;;;;;;;;;;;;;;;19.94;64.73;98687.19;2088453;28;19933;-48
2022/05/01 00:20:02;;;;;;;;;;;;;;;19.93;64.38;98682.84;2084716;28;19931;-49
2022/05/01 00:21:02;;;;;;;;;;;;;;;19.92;64.45;98679.34;2089566;28;19924;-49
2022/05/01 00:22:04;;;;;;;;;;;;;;;19.92;64.86;98683.88;2089073;28;19928;-49
2022/05/01 00:23:05;;;;;;;;;;;;;;;19.94;64.50;98681.81;2086433;28;19943;-47
2022/05/01 00:24:07;;;;;;;;;;;;;;;19.92;64.57;98681.19;2087177;28;19935;-48
2022/05/01 00:25:08;;;;;;;;;;;;;;;19.92;64.46;98681.19;2083877;28;20445;-48
2022/05/01 00:26:10;;;;;;;;;;;;;;;19.94;64.32;98676.41;2091627;28;20042;-48
2022/05/01 00:27:10;;;;;;;;;;;;;;;19.94;64.58;98679.94;2090503;28;20470;-51
2022/05/01 00:28:12;;;;;;;;;;;;;;;19.94;64.44;98677.22;2089988;28;19939;-49
2022/05/01 00:29:13;;;;;;;;;;;;;;;19.94;64.38;98668.34;2085392;28;20262;-50
2022/05/01 00:30:14;;;;;;;;;;;;;;;19.94;64.39;98676.41;2087116;28;19935;-51
2022/05/01 00:31:16;;;;;;;;;;;;;;;19.93;64.66;98678.28;2083572;28;20023;-50
2022/05/01 00:32:17;;;;;;;;;;;;;;;19.93;64.38;98672.91;2088319;28;19935;-47
2022/05/01 00:37:19;;;;;;;;;;;;;;;19.95;64.50;98675.41;2089226;28;19929;-48
2022/05/01 00:38:20;;;;;;;;;;;;;;;19.93;64.49;98672.91;2090097;28;19924;-48
2022/05/01 00:39:22;;;;;;;;;;;;;;;19.92;64.75;98673.09;2085760;28;19974;-49
2022/05/01 00:40:22;;;;;;;;;;;;;;;19.92;64.62;98668.56;2082765;28;19932;-52
2022/05/01 00:41:27;;;;;;;;;;;;;;;19.94;64.43;98669.16;2086956;28;19924;-48
2022/05/01 00:42:27;;;;;;;;;;;;;;;19.94;64.56;98671.03;2092547;28;20019;-50
2022/05/01 00:43:29;;;;;;;;;;;;;;;19.94;64.47;98673.72;2086651;28;19933;-48
2022/05/01 00:44:29;;;;;;;;;;;;;;;19.92;64.83;98665.88;2081830;28;19936;-48
2022/05/01 00:45:31;;;;;;;;;;;;;;;19.91;65.02;98672.28;2088104;28;19924;-48
2022/05/01 00:46:32;;;;;;;;;;;;;;;19.92;64.69;98673.94;2087168;28;19935;-49
2022/05/01 00:47:34;;;;;;;;;;;;;;;19.92;65.02;98676.66;2088878;28;20422;-49
2022/05/01 00:48:34;;;;;;;;;;;;;;;19.93;64.74;98674.78;2085431;28;19925;-47
2022/05/01 00:49:36;;;;;;;;;;;;;;;19.93;64.55;98672.91;2090586;28;19935;-48
2022/05/01 00:50:36;;;;;;;;;;;;;;;19.93;64.66;98675.59;2086990;28;19925;-49
2022/05/01 00:51:42;;;;;;;;;;;;;;;19.93;64.59;98672.09;2086551;28;19925;-48
2022/05/01 00:52:42;;;;;;;;;;;;;;;19.92;64.82;98670.41;2088150;28;19963;-48
2022/05/01 00:53:44;;;;;;;;;;;;;;;19.92;64.53;98675.78;2085806;28;19940;-48
2022/05/01 00:54:47;;;;;;;;;;;;;;;19.92;64.77;98670.41;2086463;28;20673;-48
2022/05/01 00:55:47;;;;;;;;;;;;;;;19.90;64.54;98667.13;2091396;28;19929;-46
2022/05/01 00:56:50;;;;;;;;;;;;;;;19.89;64.95;98668.97;2086883;28;22534;-48
2022/05/01 00:57:51;;;;;;;;;;;;;;;19.90;64.80;98675.19;2087946;28;19928;-48
2022/05/01 00:58:53;;;;;;;;;;;;;;;19.90;64.81;98673.31;2087932;28;20371;-50
2022/05/01 00:59:54;;;;;;;;;;;;;;;19.91;64.72;98661.50;2087773;28;20059;-46
2022/05/01 01:00:56;;;;;;;;;;;;;;;19.93;64.46;98661.31;2086090;28;20438;-51
2022/05/01 01:01:57;;;;;;;;;;;;;;;19.93;64.54;98661.31;2091767;28;19924;-48
2022/05/01 01:02:58;;;;;;;;;;;;;;;19.92;64.83;98657.81;2088657;28;19944;-48
2022/05/01 01:03:59;;;;;;;;;;;;;;;19.93;64.62;98666.69;2089031;28;19989;-47
2022/05/01 01:05:00;;;;;;;;;;;;;;;19.93;65.15;98661.31;2086388;28;19944;-48
2022/05/01 01:06:01;;;;;;;;;;;;;;;19.91;64.93;98661.50;2081534;28;19928;-49
2022/05/01 01:07:04;;;;;;;;;;;;;;;19.90;64.93;98656.34;2086622;28;19929;-47
2022/05/01 01:08:05;;;;;;;;;;;;;;;19.90;64.96;98657.19;2081956;28;19925;-47
2022/05/01 01:09:07;;;;;;;;;;;;;;;19.90;64.95;98661.75;2088562;28;19932;-47
2022/05/01 01:10:08;;;;;;;;;;;;;;;19.91;64.79;98658.00;2086058;28;20027;-51
2022/05/01 01:11:10;;;;;;;;;;;;;;;19.92;64.76;98659.63;2088913;28;20371;-50
2022/05/01 01:13:39;;;;;;;;;;;;;;;19.92;64.74;98660.50;2088821;28;19925;-48
2022/05/01 01:14:42;;;;;;;;;;;;;;;19.92;64.85;98655.09;2087805;28;19936;-48
2022/05/01 01:15:44;;;;;;;;;;;;;;;19.92;64.70;98659.63;2085358;28;20158;-50
2022/05/01 01:16:44;;;;;;;;;;;;;;;19.91;64.70;98658.00;2085935;28;19936;-49
2022/05/01 01:17:46;;;;;;;;;;;;;;;19.91;64.94;98652.63;2090556;28;20309;-48
2022/05/01 01:18:47;;;;;;;;;;;;;;;19.92;65.09;98654.25;2090622;28;19925;-47
2022/05/01 01:19:48;;;;;;;;;;;;;;;19.89;64.64;98655.50;2091321;28;20500;-47
2022/05/01 01:20:52;;;;;;;;;;;;;;;19.91;65.00;98658.00;2085085;28;19933;-48
2022/05/01 01:21:52;;;;;;;;;;;;;;;19.90;64.83;98653.66;2083898;28;19975;-49
2022/05/01 01:22:55;;;;;;;;;;;;;;;19.89;64.73;98655.50;2089652;28;19925;-50
2022/05/01 01:23:57;;;;;;;;;;;;;;;19.90;64.99;98659.88;2091780;28;20491;-47
2022/05/01 01:24:58;;;;;;;;;;;;;;;19.90;65.18;98656.34;2085450;28;19987;-48
2022/05/01 01:25:59;;;;;;;;;;;;;;;19.89;65.15;98654.69;2080713;28;19943;-49
2022/05/01 01:27:02;;;;;;;;;;;;;;;19.89;65.09;98649.31;2086519;28;20392;-51
2022/05/01 01:28:05;;;;;;;;;;;;;;;19.90;64.71;98656.34;2089824;28;19931;-49
2022/05/01 01:31:40;;;;;;;;;;;;;;;19.89;65.05;98655.50;2090342;28;20015;-48
2022/05/01 01:31:47;;;;;;;;;;;;;;;19.89;64.75;98649.31;2090045;28;19928;-48
2022/05/01 01:32:48;;;;;;;;;;;;;;;19.86;65.74;98647.84;2087620;28;19956;-49
2022/05/01 01:33:51;;;;;;;;;;;;;;;19.88;65.06;98645.78;2089581;28;19947;-48
2022/05/01 01:34:53;;;;;;;;;;;;;;;19.89;65.12;98638.53;2087387;28;20549;-51
2022/05/01 01:35:56;;;;;;;;;;;;;;;19.89;64.94;98646.59;2090691;28;19928;-48
2022/05/01 01:36:57;;;;;;;;;;;;;;;19.90;64.89;98640.22;2085695;28;20004;-47
2022/05/01 01:37:59;;;;;;;;;;;;;;;19.88;64.99;98642.28;2088043;28;19932;-50
2022/05/01 01:38:59;;;;;;;;;;;;;;;19.88;65.29;98637.72;2091865;28;19932;-47
2022/05/01 01:40:01;;;;;;;;;;;;;;;19.89;65.09;98642.03;2090114;28;19931;-49
2022/05/01 01:41:07;;;;;;;;;;;;;;;19.88;65.17;98632.31;2091788;28;19954;-47
2022/05/01 01:42:10;;;;;;;;;;;;;;;19.86;65.15;98632.56;2089247;28;19932;-47
2022/05/01 01:43:11;;;;;;;;;;;;;;;19.86;65.43;98632.56;2087940;28;20307;-48
2022/05/01 01:44:13;;;;;;;;;;;;;;;19.85;65.13;98628.19;2087888;28;20020;-49
2022/05/01 01:45:13;;;;;;;;;;;;;;;19.88;65.29;98626.13;2084378;28;20624;-49
2022/05/01 01:46:15;;;;;;;;;;;;;;;19.88;65.26;98626.94;2086861;28;19989;-48
2022/05/01 01:47:17;;;;;;;;;;;;;;;19.89;65.03;98633.16;2090835;28;19929;-48
2022/05/01 01:48:20;;;;;;;;;;;;;;;19.89;64.96;98633.16;2089260;28;19929;-49
2022/05/01 01:49:20;;;;;;;;;;;;;;;19.88;65.28;98621.56;2086170;28;20050;-49
2022/05/01 01:50:22;;;;;;;;;;;;;;;19.89;65.29;98627.78;2088141;28;20065;-46
2022/05/01 01:51:24;;;;;;;;;;;;;;;19.90;65.25;98619.50;2083902;28;20411;-47
2022/05/01 01:52:25;;;;;;;;;;;;;;;19.89;65.13;98627.78;2088809;28;20053;-48
2022/05/01 01:53:26;;;;;;;;;;;;;;;19.86;65.40;98624.47;2085787;28;19990;-47
2022/05/01 01:54:28;;;;;;;;;;;;;;;19.88;64.98;98620.75;2088346;28;19931;-48
2022/05/01 01:55:31;;;;;;;;;;;;;;;19.86;65.15;98624.47;2090203;28;19932;-47
2022/05/01 01:56:32;;;;;;;;;;;;;;;19.86;65.29;98619.09;2085411;28;19936;-47
2022/05/01 01:57:33;;;;;;;;;;;;;;;19.85;65.06;98622.00;2085342;28;19925;-48
2022/05/01 01:58:35;;;;;;;;;;;;;;;19.85;65.31;98619.28;2089217;28;19939;-46
2022/05/01 01:59:35;;;;;;;;;;;;;;;19.84;65.19;98620.34;2084085;28;19925;-47
2022/05/01 02:00:37;;;;;;;;;;;;;;;19.85;65.26;98630.88;2088263;28;20309;-47
2022/05/01 02:01:40;;;;;;;;;;;;;;;19.88;64.89;98631.50;2086397;28;19929;-49
2022/05/01 02:02:42;;;;;;;;;;;;;;;19.86;65.09;98637.94;2088917;28;19979;-47
2022/05/01 02:03:42;;;;;;;;;;;;;;;19.85;65.38;98627.38;2086549;28;19942;-46
2022/05/01 02:04:45;;;;;;;;;;;;;;;19.86;65.10;98629.00;2090560;28;19935;-46
2022/05/01 02:05:46;;;;;;;;;;;;;;;19.85;65.33;98619.28;2084022;28;19929;-49
2022/05/01 02:06:49;;;;;;;;;;;;;;;19.84;65.21;98629.25;2081514;28;20493;-52
2022/05/01 02:07:50;;;;;;;;;;;;;;;19.83;65.16;98619.50;2087876;28;19958;-47
2022/05/01 02:08:51;;;;;;;;;;;;;;;19.85;65.22;98628.19;2085811;28;19925;-48
2022/05/01 02:09:52;;;;;;;;;;;;;;;19.86;65.21;98632.56;2081072;28;19944;-48
2022/05/01 02:10:53;;;;;;;;;;;;;;;19.86;65.16;98629.88;2089694;28;20335;-46
2022/05/01 02:11:54;;;;;;;;;;;;;;;19.86;65.22;98634.41;2088265;28;20602;-48
2022/05/01 02:12:55;;;;;;;;;;;;;;;19.85;65.19;98630.06;2086632;28;20023;-50
2022/05/01 02:13:56;;;;;;;;;;;;;;;19.85;65.03;98622.81;2084730;28;19929;-47
2022/05/01 02:14:57;;;;;;;;;;;;;;;19.82;65.15;98617.03;2090394;28;19925;-47
2022/05/01 02:15:58;;;;;;;;;;;;;;;19.83;65.46;98619.50;2084598;28;19932;-47
2022/05/01 02:16:59;;;;;;;;;;;;;;;19.84;65.51;98626.56;2085579;28;20392;-49
2022/05/01 02:18:00;;;;;;;;;;;;;;;19.85;65.05;98616.59;2088036;28;20015;-48
2022/05/01 02:19:01;;;;;;;;;;;;;;;19.85;65.16;98630.06;2084621;28;19940;-48
2022/05/01 02:20:02;;;;;;;;;;;;;;;19.84;65.02;98626.56;2087338;28;20366;-47
2022/05/01 02:22:24;;;;;;;;;;;;;;;19.84;65.17;98621.16;2085848;28;20344;-46
2022/05/01 02:23:25;;;;;;;;;;;;;;;19.85;65.26;98611.22;2085267;28;19929;-48
2022/05/01 02:24:27;;;;;;;;;;;;;;;19.83;65.21;98611.41;2086799;28;20435;-48
2022/05/01 02:25:28;;;;;;;;;;;;;;;19.83;65.25;98614.13;2088596;28;19929;-47
2022/05/01 02:26:30;;;;;;;;;;;;;;;19.85;64.96;98614.72;2086490;28;19925;-49
2022/05/01 02:27:30;;;;;;;;;;;;;;;19.85;65.05;98614.72;2086123;28;20038;-49
2022/05/01 02:28:32;;;;;;;;;;;;;;;19.85;65.48;98612.03;2081714;28;19924;-49
2022/05/01 02:29:33;;;;;;;;;;;;;;;19.86;65.21;98610.19;2090324;28;20414;-47
2022/05/01 02:30:34;;;;;;;;;;;;;;;19.82;65.53;98601.72;2083849;28;19941;-47
2022/05/01 02:31:35;;;;;;;;;;;;;;;19.83;64.92;98607.91;2087135;28;19929;-47
2022/05/01 02:32:37;;;;;;;;;;;;;;;19.84;65.03;98609.59;2083221;28;19924;-47
2022/05/01 02:33:38;;;;;;;;;;;;;;;19.83;65.07;98603.34;2086240;28;19924;-47
2022/05/01 02:34:40;;;;;;;;;;;;;;;19.83;65.09;98600.66;2084017;28;19982;-46
2022/05/01 02:35:40;;;;;;;;;;;;;;;19.83;65.24;98600.66;2084318;28;20581;-47
2022/05/01 02:36:42;;;;;;;;;;;;;;;19.83;65.00;98603.34;2082939;28;19932;-50
2022/05/01 02:37:45;;;;;;;;;;;;;;;19.83;65.13;98605.22;2087001;28;20445;-47
2022/05/01 02:38:47;;;;;;;;;;;;;;;19.83;65.21;98603.34;2086496;28;20310;-47
2022/05/01 02:39:48;;;;;;;;;;;;;;;19.82;65.02;98607.09;2087657;28;20390;-47
2022/05/01 02:40:49;;;;;;;;;;;;;;;19.82;65.46;98598.19;2083530;28;19966;-46
2022/05/01 02:41:51;;;;;;;;;;;;;;;19.83;65.25;98610.59;2086612;28;19939;-48
2022/05/01 02:42:52;;;;;;;;;;;;;;;19.81;65.25;98600.06;2083838;28;19928;-50
2022/05/01 02:43:53;;;;;;;;;;;;;;;19.81;64.91;98605.44;2087688;28;19982;-49
2022/05/01 02:44:55;;;;;;;;;;;;;;;19.79;65.33;98607.50;2084156;28;19932;-48
2022/05/01 02:45:57;;;;;;;;;;;;;;;19.80;65.60;98605.66;2081323;28;19950;-48
2022/05/01 02:46:57;;;;;;;;;;;;;;;19.78;65.34;98613.09;2084159;28;19932;-49
2022/05/01 02:47:59;;;;;;;;;;;;;;;19.79;65.42;98609.38;2086866;28;19928;-49
2022/05/01 02:48:59;;;;;;;;;;;;;;;19.78;65.81;98608.56;2078638;28;19924;-46
2022/05/01 02:50:03;;;;;;;;;;;;;;;19.79;65.11;98612.91;2090349;28;20016;-46
2022/05/01 02:51:04;;;;;;;;;;;;;;;19.79;65.29;98601.31;2084259;28;20002;-50
2022/05/01 02:52:06;;;;;;;;;;;;;;;19.77;65.19;98604.19;2086452;28;20618;-48
2022/05/01 02:53:07;;;;;;;;;;;;;;;19.79;65.16;98602.13;2086536;28;19932;-46
2022/05/01 02:54:09;;;;;;;;;;;;;;;19.79;65.32;98601.31;2085595;28;19978;-47
2022/05/01 02:55:10;;;;;;;;;;;;;;;19.80;65.16;98606.47;2083066;28;20402;-49
2022/05/01 02:56:11;;;;;;;;;;;;;;;19.78;65.33;98603.19;2078131;28;19933;-49
2022/05/01 02:57:12;;;;;;;;;;;;;;;19.77;65.31;98604.19;2078607;28;20432;-50
2022/05/01 02:58:13;;;;;;;;;;;;;;;19.80;65.45;98597.56;2074653;28;19971;-47
2022/05/01 02:59:14;;;;;;;;;;;;;;;19.80;65.15;98597.56;2079826;28;19991;-50
2022/05/01 03:00:17;;;;;;;;;;;;;;;19.80;65.15;98602.94;2077723;28;19933;-50
2022/05/01 03:01:18;;;;;;;;;;;;;;;19.81;65.18;98600.06;2078895;28;19929;-50
2022/05/01 03:02:19;;;;;;;;;;;;;;;19.79;65.18;98596.75;2077673;28;20346;-47
2022/05/01 03:03:20;;;;;;;;;;;;;;;19.80;65.35;98603.78;2073480;28;19929;-51
2022/05/01 03:04:22;;;;;;;;;;;;;;;19.79;65.37;98602.13;2078620;28;19925;-47
2022/05/01 03:05:24;;;;;;;;;;;;;;;19.79;65.08;98598.63;2077479;28;19933;-48
2022/05/01 03:06:25;;;;;;;;;;;;;;;19.77;65.24;98598.00;2076058;28;19929;-50
2022/05/01 03:07:26;;;;;;;;;;;;;;;19.77;65.29;98601.50;2078769;28;19924;-53
2022/05/01 03:08:29;;;;;;;;;;;;;;;19.77;65.57;98598.00;2075972;28;19982;-49
2022/05/01 03:09:29;;;;;;;;;;;;;;;19.75;65.24;98590.16;2085218;28;20606;-50
2022/05/01 03:10:31;;;;;;;;;;;;;;;19.79;65.15;98595.94;2081991;28;19929;-49
2022/05/01 03:11:32;;;;;;;;;;;;;;;19.78;65.29;98595.09;2080660;28;19925;-49
2022/05/01 03:12:33;;;;;;;;;;;;;;;19.77;65.48;98593.44;2078341;28;20322;-48
2022/05/01 03:13:34;;;;;;;;;;;;;;;19.77;65.51;98592.63;2073190;28;19932;-47
2022/05/01 03:14:35;;;;;;;;;;;;;;;19.77;65.66;98588.06;2079692;28;20409;-49
2022/05/01 03:15:36;;;;;;;;;;;;;;;19.75;65.67;98590.16;2077496;28;20888;-48
2022/05/01 03:16:38;;;;;;;;;;;;;;;19.75;65.30;98590.16;2075159;28;19925;-49
2022/05/01 03:22:55;;;;;;;;;;;;;;;19.75;65.63;98586.59;2084254;28;19929;-48
2022/05/01 03:23:57;;;;;;;;;;;;;;;19.76;65.39;98589.09;2087161;28;19932;-52
2022/05/01 03:24:59;;;;;;;;;;;;;;;19.75;65.37;98587.47;2084742;28;19932;-51
2022/05/01 03:25:59;;;;;;;;;;;;;;;19.75;65.47;98586.59;2084980;28;19932;-50
2022/05/01 03:27:01;;;;;;;;;;;;;;;19.73;65.63;98584.16;2085329;28;20207;-48
2022/05/01 03:28:01;;;;;;;;;;;;;;;19.73;65.58;98584.16;2084495;28;19929;-47
2022/05/01 03:29:03;;;;;;;;;;;;;;;19.75;65.65;98581.22;2087736;28;19946;-53
2022/05/01 03:30:15;;;;;;;;;;;;;;;19.74;65.96;98591.16;2083719;28;19979;-49
2022/05/01 03:31:17;;;;;;;;;;;;;;;19.76;65.26;98582.91;2085730;28;20454;-48
2022/05/01 03:32:18;;;;;;;;;;;;;;;19.76;65.32;98585.59;2084083;28;19951;-50
2022/05/01 03:33:21;;;;;;;;;;;;;;;19.75;65.46;98582.09;2082456;28;20010;-48
2022/05/01 03:34:26;;;;;;;;;;;;;;;19.74;65.73;98584.97;2087622;28;19928;-48
2022/05/01 03:35:27;;;;;;;;;;;;;;;19.75;65.46;98583.91;2083227;28;19935;-49
2022/05/01 03:36:29;;;;;;;;;;;;;;;19.75;65.58;98592.00;2088581;28;20507;-49
2022/05/01 03:37:29;;;;;;;;;;;;;;;19.74;65.62;98590.34;2083418;28;19932;-49
2022/05/01 03:38:31;;;;;;;;;;;;;;;19.73;65.39;98586.84;2087138;28;19925;-51
2022/05/01 03:39:33;;;;;;;;;;;;;;;19.72;65.79;98589.72;2082239;28;19936;-48
2022/05/01 03:40:35;;;;;;;;;;;;;;;19.73;65.50;98588.72;2081682;28;19970;-50
2022/05/01 03:41:37;;;;;;;;;;;;;;;19.70;65.51;98592.66;2080948;28;20060;-49
2022/05/01 03:42:38;;;;;;;;;;;;;;;19.70;66.31;98589.13;2086420;28;19929;-50
2022/05/01 03:43:40;;;;;;;;;;;;;;;19.69;65.50;98590.16;2084468;28;20308;-49
2022/05/01 03:44:40;;;;;;;;;;;;;;;19.70;65.50;98584.56;2088728;28;20283;-47
2022/05/01 03:45:42;;;;;;;;;;;;;;;19.70;65.79;98587.25;2085416;28;19933;-48
2022/05/01 03:46:42;;;;;;;;;;;;;;;19.71;65.74;98583.53;2086168;28;19925;-49
2022/05/01 03:47:44;;;;;;;;;;;;;;;19.72;65.64;98579.78;2081363;28;20015;-49
2022/05/01 03:48:44;;;;;;;;;;;;;;;19.72;65.66;98585.16;2085728;28;19928;-48
2022/05/01 03:49:46;;;;;;;;;;;;;;;19.72;65.34;98585.16;2089925;28;20016;-52
2022/05/01 03:50:49;;;;;;;;;;;;;;;19.71;65.41;98591.59;2087054;28;19929;-48
2022/05/01 03:51:51;;;;;;;;;;;;;;;19.72;65.46;98589.72;2088774;28;19932;-51
2022/05/01 03:52:52;;;;;;;;;;;;;;;19.72;65.91;98590.53;2088468;28;19985;-51
2022/05/01 03:53:53;;;;;;;;;;;;;;;19.72;65.67;98587.03;2089503;28;19978;-48
2022/05/01 03:54:55;;;;;;;;;;;;;;;19.71;65.74;98590.78;2088322;28;20409;-49
2022/05/01 03:55:57;;;;;;;;;;;;;;;19.71;65.79;98588.09;2088565;28;19928;-51
2022/05/01 03:56:58;;;;;;;;;;;;;;;19.70;65.59;98584.56;2090123;28;19925;-49
2022/05/01 03:57:59;;;;;;;;;;;;;;;19.69;65.75;98582.91;2086440;28;19932;-51
2022/05/01 03:59:04;;;;;;;;;;;;;;;19.69;65.54;98590.16;2090724;28;19928;-52
2022/05/01 04:00:05;;;;;;;;;;;;;;;19.69;65.52;98590.97;2088816;28;19925;-50
2022/05/01 04:01:07;;;;;;;;;;;;;;;19.67;65.88;98587.69;2091389;28;19986;-52
2022/05/01 04:02:07;;;;;;;;;;;;;;;19.67;65.90;98593.06;2084114;28;20007;-47
2022/05/01 04:03:09;;;;;;;;;;;;;;;19.68;65.76;98583.13;2083550;28;21107;-48
2022/05/01 04:04:09;;;;;;;;;;;;;;;19.68;65.84;98583.13;2089674;28;19933;-51
2022/05/01 04:05:12;;;;;;;;;;;;;;;19.68;65.64;98583.94;2090740;28;20492;-47
2022/05/01 04:06:14;;;;;;;;;;;;;;;19.67;65.71;98593.06;2087971;28;19982;-47
2022/05/01 04:07:14;;;;;;;;;;;;;;;19.67;65.62;98593.06;2088682;28;19955;-49
2022/05/01 04:08:16;;;;;;;;;;;;;;;19.69;65.76;98595.53;2090084;28;19998;-49
2022/05/01 04:09:17;;;;;;;;;;;;;;;19.69;65.66;98585.59;2090701;28;20483;-48
2022/05/01 04:10:20;;;;;;;;;;;;;;;19.68;65.52;98588.50;2089400;28;20002;-46
2022/05/01 04:11:20;;;;;;;;;;;;;;;19.69;65.62;98590.97;2084540;28;19966;-53
2022/05/01 04:12:22;;;;;;;;;;;;;;;19.68;65.72;98592.03;2083578;28;19932;-49
2022/05/01 04:13:24;;;;;;;;;;;;;;;19.68;65.53;98593.91;2088433;28;20611;-49
2022/05/01 04:14:24;;;;;;;;;;;;;;;19.66;65.45;98596.78;2088170;28;19935;-46
2022/05/01 04:15:26;;;;;;;;;;;;;;;19.66;65.64;98591.41;2088643;28;20014;-52
2022/05/01 04:16:26;;;;;;;;;;;;;;;19.65;65.57;98595.13;2085093;28;20012;-48
2022/05/01 04:17:28;;;;;;;;;;;;;;;19.64;65.60;98596.97;2085187;28;19925;-48
2022/05/01 04:18:28;;;;;;;;;;;;;;;19.65;65.67;98600.50;2089331;28;19936;-49
2022/05/01 04:19:30;;;;;;;;;;;;;;;19.63;65.72;98600.69;2088114;28;20016;-47
2022/05/01 04:20:32;;;;;;;;;;;;;;;19.65;65.39;98597.81;2088375;28;19936;-49
2022/05/01 04:21:33;;;;;;;;;;;;;;;19.66;65.61;98586.03;2085489;28;20387;-47
2022/05/01 04:22:36;;;;;;;;;;;;;;;19.65;65.80;98597.81;2088561;28;20040;-49
2022/05/01 04:23:38;;;;;;;;;;;;;;;19.65;65.73;98600.50;2087099;28;19925;-47
2022/05/01 04:24:39;;;;;;;;;;;;;;;19.64;65.64;98596.97;2088734;28;19960;-49
2022/05/01 04:25:42;;;;;;;;;;;;;;;19.64;65.92;98596.16;2089606;28;19925;-48
2022/05/01 04:26:42;;;;;;;;;;;;;;;19.64;65.80;98588.09;2086796;28;19929;-49
2022/05/01 04:27:44;;;;;;;;;;;;;;;19.66;65.65;98595.97;2091552;28;19932;-47
2022/05/01 04:30:01;;;;;;;;;;;;;;;19.62;65.88;98592.84;2085588;28;19931;-49
2022/05/01 04:31:02;;;;;;;;;;;;;;;19.62;65.94;98593.66;2087721;28;19933;-50
2022/05/01 04:32:04;;;;;;;;;;;;;;;19.64;65.90;98593.47;2085130;28;19955;-52
2022/05/01 04:33:06;;;;;;;;;;;;;;;19.64;65.51;98588.09;2086498;28;19928;-47
2022/05/01 04:34:07;;;;;;;;;;;;;;;19.62;65.68;98593.66;2088800;28;19924;-48
2022/05/01 04:35:09;;;;;;;;;;;;;;;19.63;65.83;98594.50;2089868;28;19928;-47
2022/05/01 04:36:10;;;;;;;;;;;;;;;19.61;65.87;98596.56;2087390;28;19933;-48
2022/05/01 04:37:11;;;;;;;;;;;;;;;19.63;65.71;98586.41;2085276;28;19935;-49
2022/05/01 04:38:13;;;;;;;;;;;;;;;19.63;65.81;98599.88;2088958;28;19943;-47
2022/05/01 04:39:13;;;;;;;;;;;;;;;19.60;65.67;98598.41;2085752;28;19925;-49
2022/05/01 04:40:15;;;;;;;;;;;;;;;19.60;66.02;98590.34;2084048;28;19933;-49
2022/05/01 04:41:18;;;;;;;;;;;;;;;19.60;66.11;98593.03;2088142;28;19933;-51
2022/05/01 04:42:19;;;;;;;;;;;;;;;19.61;66.90;98599.25;2090025;28;20658;-49
2022/05/01 04:43:20;;;;;;;;;;;;;;;19.60;65.94;98597.59;2091510;28;19925;-49
2022/05/01 04:44:22;;;;;;;;;;;;;;;19.61;65.89;98596.56;2088531;28;19929;-49
2022/05/01 04:45:22;;;;;;;;;;;;;;;19.59;65.74;98601.34;2088118;28;19932;-50
2022/05/01 04:46:24;;;;;;;;;;;;;;;19.61;65.91;98601.94;2085571;28;19928;-51
2022/05/01 04:47:25;;;;;;;;;;;;;;;19.63;65.60;98599.88;2084668;28;19928;-50
2022/05/01 04:48:26;;;;;;;;;;;;;;;19.60;66.29;98609.19;2089159;28;20463;-48
2022/05/01 04:49:29;;;;;;;;;;;;;;;19.62;66.13;98606.31;2091161;28;19928;-50
2022/05/01 04:50:31;;;;;;;;;;;;;;;19.59;66.28;98598.66;2088938;28;19930;-49
2022/05/01 04:51:32;;;;;;;;;;;;;;;19.57;66.14;98601.53;2088411;28;20542;-50
2022/05/01 04:52:35;;;;;;;;;;;;;;;19.56;66.92;98609.84;2090511;28;19978;-46
2022/05/01 04:53:37;;;;;;;;;;;;;;;19.57;66.01;98603.41;2086911;28;19974;-50
2022/05/01 04:54:38;;;;;;;;;;;;;;;19.58;66.01;98605.88;2090212;28;19924;-47
2022/05/01 04:55:40;;;;;;;;;;;;;;;19.57;66.25;98608.78;2082647;28;19932;-48
2022/05/01 04:58:02;;;;;;;;;;;;;;;19.55;66.58;98610.84;2086036;28;19924;-46
2022/05/01 04:59:07;;;;;;;;;;;;;;;19.57;65.93;98609.59;2088910;28;21040;-48
2022/05/01 05:00:09;;;;;;;;;;;;;;;19.55;66.41;98613.53;2087898;28;20275;-50
2022/05/01 05:01:10;;;;;;;;;;;;;;;19.55;66.47;98610.84;2084553;28;19939;-47
2022/05/01 05:02:11;;;;;;;;;;;;;;;19.55;66.59;98614.38;2087260;28;20374;-50
2022/05/01 05:03:13;;;;;;;;;;;;;;;19.53;66.52;98615.59;2091075;28;19989;-48
2022/05/01 05:04:15;;;;;;;;;;;;;;;19.54;66.48;98625.34;2083836;28;20024;-48
2022/05/01 05:05:18;;;;;;;;;;;;;;;19.54;66.77;98614.59;2091424;28;20977;-52
2022/05/01 05:06:21;;;;;;;;;;;;;;;19.56;66.15;98609.84;2085986;28;20015;-49
2022/05/01 05:07:23;;;;;;;;;;;;;;;19.55;66.41;98614.38;2090224;28;19995;-47
2022/05/01 05:09:54;;;;;;;;;;;;;;;19.58;66.82;98618.50;2087542;28;19928;-47
2022/05/01 05:10:56;;;;;;;;;;;;;;;19.54;66.70;98614.59;2085669;28;20627;-50
2022/05/01 05:11:58;;;;;;;;;;;;;;;19.54;66.53;98618.09;2090887;28;20292;-50
2022/05/01 05:12:59;;;;;;;;;;;;;;;19.55;66.60;98618.91;2088215;28;20540;-50
2022/05/01 05:14:00;;;;;;;;;;;;;;;19.55;66.10;98627.81;2086923;28;19932;-48
2022/05/01 05:15:02;;;;;;;;;;;;;;;19.56;66.71;98625.97;2082755;28;19932;-49
2022/05/01 05:16:08;;;;;;;;;;;;;;;19.53;66.90;98629.91;2086118;28;20604;-50
2022/05/01 05:17:10;;;;;;;;;;;;;;;19.53;66.14;98626.38;2086703;28;19924;-49
2022/05/01 05:18:11;;;;;;;;;;;;;;;19.51;66.33;98629.28;2089139;28;19925;-47
2022/05/01 05:19:12;;;;;;;;;;;;;;;19.53;66.46;98627.22;2086302;28;19933;-48
2022/05/01 05:20:14;;;;;;;;;;;;;;;19.53;66.52;98623.69;2088537;28;21209;-46
2022/05/01 05:21:14;;;;;;;;;;;;;;;19.52;66.77;98624.72;2088795;28;19929;-47
2022/05/01 05:22:16;;;;;;;;;;;;;;;19.51;67.01;98628.47;2088603;28;20341;-52
2022/05/01 05:23:17;;;;;;;;;;;;;;;19.50;66.70;98629.47;2086635;28;19935;-47
2022/05/01 05:24:19;;;;;;;;;;;;;;;19.50;66.69;98626.78;2090505;28;19935;-49
2022/05/01 05:25:20;;;;;;;;;;;;;;;19.52;66.76;98632.78;2083517;28;19932;-51
2022/05/01 05:26:21;;;;;;;;;;;;;;;19.51;66.78;98626.59;2083883;28;20624;-49
2022/05/01 05:27:25;;;;;;;;;;;;;;;19.52;67.08;98632.78;2087506;28;19933;-49
2022/05/01 05:28:26;;;;;;;;;;;;;;;19.52;67.31;98632.78;2083929;28;20011;-48
2022/05/01 05:29:28;;;;;;;;;;;;;;;19.52;66.56;98635.50;2087716;28;19936;-49
2022/05/01 05:30:28;;;;;;;;;;;;;;;19.51;66.64;98640.03;2081574;28;22117;-47
2022/05/01 05:31:30;;;;;;;;;;;;;;;19.51;66.36;98641.91;2088116;28;19929;-50
2022/05/01 05:32:32;;;;;;;;;;;;;;;19.51;66.42;98642.75;2081834;28;19948;-51
2022/05/01 05:33:32;;;;;;;;;;;;;;;19.52;66.82;98638.19;2085697;28;20031;-47
2022/05/01 05:34:34;;;;;;;;;;;;;;;19.50;67.25;98642.94;2086853;28;19956;-51
2022/05/01 05:35:36;;;;;;;;;;;;;;;19.49;67.56;98634.03;2082455;28;20660;-48
2022/05/01 05:36:37;;;;;;;;;;;;;;;19.50;67.04;98637.56;2074830;28;20462;-47
2022/05/01 05:37:39;;;;;;;;;;;;;;;19.50;66.92;98643.78;2081204;28;19925;-48
2022/05/01 05:38:39;;;;;;;;;;;;;;;19.51;66.66;98641.91;2082413;28;20050;-51